Time;durP1;ratioP1;P1;durP2;ratioP2;P2;SDS_P1;SDS_P2;PMS_P1;PMS_P2;Temp;Humidity;BMP_temperature;BMP_pressure;BME280_temperature;BME280_humidity;BME280_pressure;Samples;Min_cycle;Max_cycle;Signal;HPM_P1;HPM_P2
2021/05/07 00:00:12;;;;;;;5.00;4.50;;;9.40;99.90;;;;;;5119680;28;20826;-65
2021/05/07 00:02:38;;;;;;;6.13;5.17;;;9.40;99.90;;;;;;5119717;28;20457;-64
2021/05/07 00:05:05;;;;;;;5.30;4.60;;;9.40;99.90;;;;;;5120250;28;20812;-66
2021/05/07 00:07:31;;;;;;;5.40;4.90;;;9.40;99.90;;;;;;5119748;28;20467;-64
2021/05/07 00:09:58;;;;;;;6.23;5.30;;;9.40;99.90;;;;;;5119749;28;20453;-65
2021/05/07 00:12:24;;;;;;;13.23;4.97;;;9.40;99.90;;;;;;5119192;28;20472;-65
2021/05/07 00:14:51;;;;;;;5.97;5.40;;;9.40;99.90;;;;;;5118451;28;20928;-66
2021/05/07 00:17:17;;;;;;;6.07;4.93;;;9.40;99.90;;;;;;5119214;28;20833;-65
2021/05/07 00:19:43;;;;;;;7.10;5.30;;;9.40;99.90;;;;;;5119655;28;20452;-65
2021/05/07 00:22:10;;;;;;;6.50;5.80;;;9.40;99.90;;;;;;5118763;28;20775;-65
2021/05/07 00:24:36;;;;;;;8.17;5.30;;;9.40;99.90;;;;;;5118817;28;20460;-65
2021/05/07 00:27:02;;;;;;;5.83;5.30;;;9.40;99.90;;;;;;5119158;28;20837;-65
2021/05/07 00:29:29;;;;;;;7.23;5.50;;;9.40;99.90;;;;;;5118687;28;20488;-65
2021/05/07 00:31:56;;;;;;;6.00;5.13;;;9.30;99.90;;;;;;5117938;28;20888;-65
2021/05/07 00:34:22;;;;;;;6.83;6.13;;;9.30;99.90;;;;;;5118830;28;20536;-65
2021/05/07 00:36:49;;;;;;;5.77;5.20;;;9.30;99.90;;;;;;5118152;28;20471;-65
2021/05/07 00:39:15;;;;;;;5.43;4.93;;;9.30;99.90;;;;;;5118417;28;20464;-65
2021/05/07 00:41:42;;;;;;;6.60;5.67;;;9.30;99.90;;;;;;5118855;28;20456;-65
2021/05/07 00:44:08;;;;;;;6.30;5.70;;;9.30;99.90;;;;;;5119022;28;20743;-65
2021/05/07 00:46:37;;;;;;;5.60;5.10;;;9.30;99.90;;;;;;5119035;27;20460;-65
2021/05/07 00:49:04;;;;;;;7.00;5.20;;;9.20;99.90;;;;;;5118577;28;20463;-66
2021/05/07 00:51:33;;;;;;;6.20;5.30;;;9.10;99.90;;;;;;5118403;28;20792;-66
2021/05/07 00:53:59;;;;;;;6.27;5.13;;;9.10;99.90;;;;;;5117607;28;20472;-66
2021/05/07 00:56:25;;;;;;;5.90;5.30;;;9.10;99.90;;;;;;5117835;28;20516;-65
2021/05/07 00:58:52;;;;;;;5.93;4.97;;;9.10;99.90;;;;;;5118576;28;20555;-65
2021/05/07 01:01:18;;;;;;;6.63;5.93;;;9.10;99.90;;;;;;5118322;28;20456;-65
2021/05/07 01:03:45;;;;;;;6.83;4.93;;;9.10;99.90;;;;;;5118403;28;20821;-65
2021/05/07 01:06:12;;;;;;;5.70;5.20;;;9.10;99.90;;;;;;5117789;28;20461;-65
2021/05/07 01:08:38;;;;;;;6.70;5.53;;;9.10;99.90;;;;;;5118113;28;20448;-66
2021/05/07 01:11:05;;;;;;;5.70;5.10;;;9.10;99.90;;;;;;5118366;28;20456;-65
2021/05/07 01:13:32;;;;;;;7.00;5.00;;;9.10;99.90;;;;;;5118125;28;20483;-65
2021/05/07 01:15:59;;;;;;;5.73;5.13;;;9.10;99.90;;;;;;5117961;28;20456;-65
2021/05/07 01:18:26;;;;;;;6.67;5.13;;;9.10;99.90;;;;;;5117771;28;20461;-65
2021/05/07 01:20:53;;;;;;;5.27;4.77;;;9.20;99.90;;;;;;5117418;28;20463;-65
2021/05/07 01:23:19;;;;;;;5.57;5.00;;;9.20;99.90;;;;;;5117896;28;20491;-66
2021/05/07 01:25:45;;;;;;;6.03;5.43;;;9.10;99.90;;;;;;5118221;28;20509;-65
2021/05/07 01:28:13;;;;;;;5.63;5.13;;;9.20;99.90;;;;;;5117671;28;20912;-65
2021/05/07 01:30:41;;;;;;;5.90;5.23;;;9.20;99.90;;;;;;5117767;28;20951;-65
2021/05/07 01:33:10;;;;;;;8.00;5.30;;;9.20;99.90;;;;;;5118042;28;20481;-65
2021/05/07 01:35:37;;;;;;;6.27;5.17;;;9.10;99.90;;;;;;5117779;28;20515;-66
2021/05/07 01:38:06;;;;;;;7.17;5.53;;;9.10;99.90;;;;;;5117828;28;20463;-65
2021/05/07 01:40:33;;;;;;;6.40;5.80;;;9.10;99.90;;;;;;5117391;28;20456;-65
2021/05/07 01:43:00;;;;;;;6.20;5.27;;;9.10;99.90;;;;;;5117149;28;20505;-65
2021/05/07 01:45:30;;;;;;;6.03;5.50;;;9.10;99.90;;;;;;5116989;28;20461;-65
2021/05/07 01:47:57;;;;;;;6.30;5.70;;;9.00;99.90;;;;;;5117177;28;20452;-65
2021/05/07 01:50:25;;;;;;;7.23;5.90;;;9.00;99.90;;;;;;5116764;28;20525;-64
2021/05/07 01:52:52;;;;;;;6.97;6.00;;;9.00;99.90;;;;;;5116748;28;20477;-65
2021/05/07 01:55:21;;;;;;;6.97;6.27;;;9.00;99.90;;;;;;5116399;28;20920;-65
2021/05/07 01:57:47;;;;;;;6.60;5.47;;;9.00;99.90;;;;;;5115787;28;20452;-65
2021/05/07 02:00:16;;;;;;;6.43;5.83;;;8.90;99.90;;;;;;5116553;28;20517;-66
2021/05/07 02:02:43;;;;;;;8.53;5.93;;;8.90;99.90;;;;;;5116623;28;20835;-66
2021/05/07 02:05:11;;;;;;;5.77;5.27;;;8.90;99.90;;;;;;5116344;28;20467;-65
2021/05/07 02:07:37;;;;;;;6.60;5.93;;;8.80;99.90;;;;;;5118320;28;20457;-66
2021/05/07 02:10:06;;;;;;;6.40;5.70;;;8.80;99.90;;;;;;5118312;28;20460;-65
2021/05/07 02:12:33;;;;;;;6.37;5.63;;;8.80;99.90;;;;;;5118648;28;20501;-67
2021/05/07 02:15:00;;;;;;;9.83;5.40;;;8.80;99.90;;;;;;5118455;28;20525;-65
2021/05/07 02:17:26;;;;;;;6.30;5.67;;;8.80;99.90;;;;;;5117530;28;20467;-68
2021/05/07 02:19:52;;;;;;;6.90;5.13;;;8.80;99.90;;;;;;5117870;28;20452;-67
2021/05/07 02:22:18;;;;;;;5.40;4.90;;;8.80;99.90;;;;;;5117377;28;20777;-65
2021/05/07 02:24:44;;;;;;;6.27;5.67;;;8.80;99.90;;;;;;5117518;28;20468;-65
2021/05/07 02:27:11;;;;;;;7.10;5.70;;;8.80;99.90;;;;;;5117395;28;20456;-66
2021/05/07 02:29:38;;;;;;;6.80;5.43;;;8.80;99.90;;;;;;5117394;28;20452;-66
2021/05/07 02:32:04;;;;;;;5.83;5.17;;;8.80;99.90;;;;;;5117901;28;20748;-65
2021/05/07 02:34:30;;;;;;;6.00;5.40;;;8.80;99.90;;;;;;5117402;28;20487;-66
2021/05/07 02:36:57;;;;;;;7.17;5.87;;;8.80;99.90;;;;;;5116869;28;20464;-66
2021/05/07 02:39:23;;;;;;;9.43;5.47;;;8.70;99.90;;;;;;5118119;28;20452;-66
2021/05/07 02:41:49;;;;;;;8.33;5.53;;;8.70;99.90;;;;;;5118169;28;20475;-66
2021/05/07 02:44:15;;;;;;;7.70;6.10;;;8.70;99.90;;;;;;5117734;28;20521;-66
2021/05/07 02:46:42;;;;;;;6.87;5.80;;;8.70;99.90;;;;;;5117684;28;20532;-66
2021/05/07 02:49:09;;;;;;;10.60;5.63;;;8.70;99.90;;;;;;5117274;28;20464;-66
2021/05/07 02:51:35;;;;;;;7.17;6.10;;;8.70;99.90;;;;;;5117065;28;20456;-66
2021/05/07 02:54:02;;;;;;;9.70;6.40;;;8.60;99.90;;;;;;5117172;28;20870;-66
2021/05/07 02:56:29;;;;;;;6.83;6.13;;;8.60;99.90;;;;;;5117210;28;20877;-66
2021/05/07 02:58:56;;;;;;;8.30;6.60;;;8.60;99.90;;;;;;5117163;28;20452;-66
2021/05/07 03:01:23;;;;;;;7.50;6.30;;;8.50;99.90;;;;;;5116941;28;20460;-67
2021/05/07 03:03:50;;;;;;;6.40;5.80;;;8.50;99.90;;;;;;5117316;28;20474;-66
2021/05/07 03:06:17;;;;;;;6.63;5.93;;;8.50;99.90;;;;;;5116808;28;20463;-66
2021/05/07 03:08:43;;;;;;;6.43;5.73;;;8.50;99.90;;;;;;5118437;28;20785;-66
2021/05/07 03:11:10;;;;;;;7.87;6.77;;;8.50;99.90;;;;;;5121320;28;20475;-67
2021/05/07 03:13:36;;;;;;;7.80;6.07;;;8.50;99.90;;;;;;5121366;28;20804;-66
2021/05/07 03:16:02;;;;;;;7.83;5.77;;;8.50;99.90;;;;;;5121317;28;20520;-66
2021/05/07 03:18:29;;;;;;;8.10;6.30;;;8.50;99.90;;;;;;5121195;28;20935;-68
2021/05/07 03:20:56;;;;;;;7.70;6.40;;;8.50;99.90;;;;;;5121352;28;20783;-66
2021/05/07 03:23:22;;;;;;;6.87;6.17;;;8.50;99.90;;;;;;5121497;28;20522;-67
2021/05/07 03:25:50;;;;;;;9.07;6.90;;;8.40;99.90;;;;;;5121046;28;20544;-66
2021/05/07 03:28:16;;;;;;;7.13;5.80;;;8.40;99.90;;;;;;5120561;28;20916;-66
2021/05/07 03:30:42;;;;;;;7.17;6.40;;;8.40;99.90;;;;;;5120526;28;20808;-67
2021/05/07 03:33:08;;;;;;;9.53;7.93;;;8.40;99.90;;;;;;5120322;28;20484;-66
2021/05/07 03:35:36;;;;;;;14.17;12.00;;;8.40;99.90;;;;;;5120638;27;20456;-66
2021/05/07 03:38:04;;;;;;;13.73;11.70;;;8.40;99.90;;;;;;5121324;28;20463;-66
2021/05/07 03:40:30;;;;;;;14.07;11.43;;;8.40;99.90;;;;;;5121258;27;20789;-67
2021/05/07 03:42:57;;;;;;;14.53;11.40;;;8.40;99.90;;;;;;5121092;27;20452;-66
2021/05/07 03:45:23;;;;;;;14.60;12.20;;;8.40;99.90;;;;;;5120591;28;20521;-66
2021/05/07 03:47:49;;;;;;;13.20;11.80;;;8.40;99.90;;;;;;5120409;28;20471;-67
2021/05/07 03:50:16;;;;;;;15.13;11.20;;;8.40;99.90;;;;;;5120638;28;20456;-67
2021/05/07 03:52:42;;;;;;;13.87;11.10;;;8.30;99.90;;;;;;5121126;28;20504;-67
2021/05/07 03:55:11;;;;;;;11.13;9.93;;;8.40;99.90;;;;;;5120559;28;20456;-67
2021/05/07 03:57:38;;;;;;;10.27;9.27;;;8.30;99.90;;;;;;5120112;28;20448;-66
2021/05/07 04:00:06;;;;;;;11.47;9.93;;;8.40;99.90;;;;;;5120532;28;20475;-66
2021/05/07 04:02:32;;;;;;;12.90;9.97;;;8.40;99.90;;;;;;5120159;28;20524;-66
2021/05/07 04:04:58;;;;;;;9.77;8.07;;;8.40;99.90;;;;;;5120268;28;20456;-66
2021/05/07 04:07:26;;;;;;;9.50;7.00;;;8.40;99.90;;;;;;5120109;28;20547;-66
2021/05/07 04:09:57;;;;;;;9.30;7.57;;;8.40;99.90;;;;;;5119994;28;20479;-67
2021/05/07 04:13:30;;;;;;;9.80;7.80;;;8.40;99.90;;;;;;5120174;28;20444;-66
2021/05/07 04:15:11;;;;;;;10.90;7.50;;;8.40;99.90;;;;;;5119450;28;20791;-65
2021/05/07 04:17:38;;;;;;;7.90;7.03;;;8.40;99.90;;;;;;5119348;28;20467;-65
2021/05/07 04:20:05;;;;;;;8.17;6.17;;;8.40;99.90;;;;;;5119511;28;20452;-65
2021/05/07 04:22:31;;;;;;;8.67;6.33;;;8.40;99.90;;;;;;5119710;28;20459;-65
2021/05/07 04:24:58;;;;;;;8.10;5.77;;;8.40;99.90;;;;;;5119781;28;20445;-66
2021/05/07 04:27:25;;;;;;;7.00;5.83;;;8.40;99.90;;;;;;5121676;28;20474;-66
2021/05/07 04:29:51;;;;;;;6.23;5.47;;;8.40;99.90;;;;;;5119911;28;20448;-66
2021/05/07 04:32:17;;;;;;;7.77;5.53;;;8.30;99.90;;;;;;5119883;27;20444;-65
2021/05/07 04:34:43;;;;;;;7.10;5.70;;;8.40;99.90;;;;;;5121544;28;20488;-66
2021/05/07 04:37:10;;;;;;;6.27;5.50;;;8.40;99.90;;;;;;5120323;28;20456;-65
2021/05/07 04:39:36;;;;;;;7.83;5.10;;;8.40;99.90;;;;;;5119582;28;20452;-66
2021/05/07 04:42:02;;;;;;;6.17;5.50;;;8.40;99.90;;;;;;5120064;28;20463;-66
2021/05/07 04:44:29;;;;;;;6.00;4.80;;;8.40;99.90;;;;;;5120097;28;20452;-66
2021/05/07 04:46:59;;;;;;;5.63;4.50;;;8.40;99.90;;;;;;5119446;28;20456;-66
2021/05/07 04:49:25;;;;;;;5.50;4.97;;;8.50;99.90;;;;;;5119651;28;20465;-66
2021/05/07 04:51:51;;;;;;;6.30;5.40;;;8.50;99.90;;;;;;5119727;28;20460;-65
2021/05/07 04:54:18;;;;;;;8.60;5.53;;;8.50;99.90;;;;;;5119909;28;20483;-67
2021/05/07 04:56:44;;;;;;;5.87;4.87;;;8.50;99.90;;;;;;5119481;28;20757;-67
2021/05/07 04:59:10;;;;;;;8.23;5.03;;;8.40;99.90;;;;;;5118310;28;20460;-67
2021/05/07 05:01:37;;;;;;;6.40;5.77;;;8.30;99.90;;;;;;5118273;28;20457;-67
2021/05/07 05:04:04;;;;;;;6.83;5.97;;;8.20;99.90;;;;;;5119751;28;20452;-67
2021/05/07 05:06:30;;;;;;;8.97;5.87;;;8.10;99.90;;;;;;5118859;28;20464;-66
2021/05/07 05:08:57;;;;;;;7.80;6.50;;;7.90;99.90;;;;;;5117811;28;20463;-66
2021/05/07 05:11:23;;;;;;;9.90;6.37;;;7.80;99.90;;;;;;5117756;28;20461;-65
2021/05/07 05:13:49;;;;;;;6.53;5.90;;;7.60;99.90;;;;;;5118256;28;20472;-65
2021/05/07 05:16:15;;;;;;;6.20;5.60;;;7.50;99.90;;;;;;5117909;28;20521;-66
2021/05/07 05:18:42;;;;;;;5.83;5.23;;;7.40;99.90;;;;;;5118122;28;20456;-66
2021/05/07 05:21:09;;;;;;;9.80;5.47;;;7.30;99.90;;;;;;5118124;27;20461;-66
2021/05/07 05:23:38;;;;;;;7.43;5.80;;;7.20;99.90;;;;;;5118074;28;20452;-66
2021/05/07 05:26:04;;;;;;;4.97;4.33;;;7.10;99.90;;;;;;5117532;28;20457;-67
2021/05/07 05:28:34;;;;;;;7.67;4.30;;;7.10;99.90;;;;;;5117563;28;20463;-67
2021/05/07 05:31:00;;;;;;;4.67;4.27;;;7.10;99.90;;;;;;5117246;28;20487;-64
2021/05/07 05:33:28;;;;;;;6.70;4.27;;;7.00;99.90;;;;;;5117290;28;20541;-66
2021/05/07 05:35:55;;;;;;;6.13;3.77;;;7.00;99.90;;;;;;5119541;28;20453;-68
2021/05/07 05:38:22;;;;;;;6.90;3.60;;;7.00;99.90;;;;;;5118639;28;20452;-67
2021/05/07 05:40:48;;;;;;;7.27;3.90;;;7.10;99.90;;;;;;5118202;28;20920;-66
2021/05/07 05:43:16;;;;;;;6.63;3.70;;;7.20;99.90;;;;;;5118433;28;20783;-66
2021/05/07 05:45:43;;;;;;;6.23;3.93;;;7.20;99.90;;;;;;5118104;28;20480;-66
2021/05/07 05:48:12;;;;;;;6.40;3.20;;;7.20;99.90;;;;;;5118941;28;20452;-66
2021/05/07 05:50:40;;;;;;;4.13;3.73;;;7.20;99.90;;;;;;5118651;27;20456;-66
2021/05/07 05:53:08;;;;;;;4.20;3.77;;;7.30;99.90;;;;;;5118863;28;21002;-67
2021/05/07 05:55:36;;;;;;;3.90;3.50;;;7.30;99.90;;;;;;5119314;28;20460;-70
2021/05/07 05:58:03;;;;;;;6.00;4.07;;;7.40;99.90;;;;;;5118294;28;20465;-67
2021/05/07 06:00:29;;;;;;;5.37;3.07;;;7.50;99.90;;;;;;5118782;28;20896;-67
2021/05/07 06:02:55;;;;;;;6.33;3.47;;;7.50;99.90;;;;;;5117885;28;20448;-67
2021/05/07 06:05:22;;;;;;;9.60;4.10;;;7.60;99.90;;;;;;5117674;28;20467;-66
2021/05/07 06:07:48;;;;;;;5.43;3.10;;;7.70;99.90;;;;;;5117760;28;20467;-66
2021/05/07 06:10:17;;;;;;;5.20;3.10;;;7.70;99.90;;;;;;5118519;28;20456;-66
2021/05/07 06:12:44;;;;;;;4.50;3.30;;;7.80;99.90;;;;;;5118253;28;20601;-67
2021/05/07 06:15:11;;;;;;;6.70;3.70;;;7.90;99.90;;;;;;5118247;28;20452;-66
2021/05/07 06:17:38;;;;;;;4.27;3.10;;;7.90;99.90;;;;;;5117501;28;20464;-67
2021/05/07 06:20:05;;;;;;;7.10;3.10;;;8.00;99.90;;;;;;5117484;28;20484;-66
2021/05/07 06:22:32;;;;;;;5.13;2.30;;;8.00;99.90;;;;;;5117195;28;20453;-67
2021/05/07 06:24:58;;;;;;;5.27;3.40;;;8.00;99.90;;;;;;5117505;28;20509;-67
2021/05/07 06:27:26;;;;;;;4.60;3.37;;;8.00;99.90;;;;;;5117688;28;20471;-66
2021/05/07 06:29:52;;;;;;;3.40;2.80;;;7.90;99.90;;;;;;5117298;28;20456;-66
2021/05/07 06:32:19;;;;;;;2.83;2.57;;;7.90;99.90;;;;;;5116903;28;20452;-66
2021/05/07 06:34:45;;;;;;;2.87;2.40;;;7.90;99.90;;;;;;5117927;28;20480;-66
2021/05/07 06:37:12;;;;;;;4.60;2.33;;;7.90;99.90;;;;;;5118514;28;20448;-67
2021/05/07 06:39:38;;;;;;;4.30;2.83;;;7.90;99.90;;;;;;5117763;28;20803;-68
2021/05/07 06:42:05;;;;;;;3.80;2.53;;;7.90;99.90;;;;;;5117938;28;20467;-67
2021/05/07 06:44:32;;;;;;;6.17;2.60;;;7.90;99.90;;;;;;5117331;28;20464;-66
2021/05/07 06:47:01;;;;;;;5.23;3.43;;;7.90;99.90;;;;;;5117208;28;20509;-65
2021/05/07 06:49:27;;;;;;;3.93;2.77;;;7.90;99.90;;;;;;5117024;28;20513;-66
2021/05/07 06:51:55;;;;;;;7.93;2.47;;;7.90;99.90;;;;;;5117511;28;20800;-66
2021/05/07 06:54:26;;;;;;;2.70;2.50;;;7.90;99.90;;;;;;5117924;28;20479;-66
2021/05/07 06:56:55;;;;;;;6.00;2.17;;;7.80;99.90;;;;;;5118919;28;20573;-66
2021/05/07 06:59:21;;;;;;;5.07;2.60;;;7.70;99.90;;;;;;5117170;28;20558;-66
2021/05/07 07:01:48;;;;;;;7.20;2.23;;;7.70;99.90;;;;;;5116238;28;20516;-68
2021/05/07 07:04:15;;;;;;;4.73;2.50;;;7.70;99.90;;;;;;5116633;28;20467;-66
2021/05/07 07:06:41;;;;;;;8.70;2.57;;;7.70;99.90;;;;;;5116627;28;20463;-67
2021/05/07 07:09:07;;;;;;;6.87;2.87;;;7.70;99.90;;;;;;5116371;28;20920;-66
2021/05/07 07:11:33;;;;;;;13.30;2.80;;;7.70;99.90;;;;;;5117310;28;20452;-67
2021/05/07 07:14:00;;;;;;;4.27;2.90;;;7.80;99.90;;;;;;5117359;28;20503;-66
2021/05/07 07:16:26;;;;;;;5.03;2.33;;;7.80;99.90;;;;;;5117184;28;20460;-66
2021/05/07 07:18:53;;;;;;;3.00;2.70;;;7.80;99.90;;;;;;5116713;28;20448;-66
2021/05/07 07:21:19;;;;;;;4.20;2.77;;;7.80;99.90;;;;;;5116888;28;20456;-67
2021/05/07 07:23:46;;;;;;;6.90;2.40;;;7.80;99.90;;;;;;5116941;28;20463;-67
2021/05/07 07:26:12;;;;;;;8.30;2.47;;;7.90;99.90;;;;;;5116952;28;20460;-67
2021/05/07 07:28:38;;;;;;;4.80;2.70;;;7.90;99.90;;;;;;5117129;28;20463;-67
2021/05/07 07:31:05;;;;;;;4.67;2.60;;;7.80;99.90;;;;;;5117197;28;20490;-67
2021/05/07 07:33:32;;;;;;;5.87;2.93;;;7.80;99.90;;;;;;5117074;28;20476;-67
2021/05/07 07:35:59;;;;;;;5.23;2.33;;;7.80;99.90;;;;;;5117194;28;20566;-67
2021/05/07 07:38:26;;;;;;;7.77;2.73;;;7.70;99.90;;;;;;5116747;28;20467;-67
2021/05/07 07:40:52;;;;;;;2.80;2.50;;;7.60;99.90;;;;;;5116982;28;20452;-66
2021/05/07 07:43:21;;;;;;;3.70;2.90;;;7.60;99.90;;;;;;5116711;28;20460;-66
2021/05/07 07:45:47;;;;;;;7.40;2.47;;;7.60;99.90;;;;;;5116626;28;20785;-66
2021/05/07 07:48:15;;;;;;;5.60;3.43;;;7.60;99.90;;;;;;5116221;28;20452;-66
2021/05/07 07:50:43;;;;;;;7.80;3.13;;;7.50;99.90;;;;;;5116624;28;20517;-66
2021/05/07 07:53:10;;;;;;;6.67;3.23;;;7.50;99.90;;;;;;5116432;28;20477;-66
2021/05/07 07:55:36;;;;;;;9.53;3.53;;;7.40;99.90;;;;;;5118081;28;20487;-67
2021/05/07 07:58:03;;;;;;;5.43;2.97;;;7.30;99.90;;;;;;5120316;28;20464;-68
2021/05/07 08:00:29;;;;;;;4.87;3.67;;;7.20;99.90;;;;;;5120415;28;20512;-66
2021/05/07 08:02:55;;;;;;;7.13;4.80;;;7.10;99.90;;;;;;5120174;28;20463;-65
2021/05/07 08:05:22;;;;;;;7.13;3.80;;;7.10;99.90;;;;;;5119889;28;20448;-66
2021/05/07 08:07:49;;;;;;;3.73;3.13;;;7.10;99.90;;;;;;5119763;28;20460;-66
2021/05/07 08:10:18;;;;;;;8.00;3.93;;;7.00;99.90;;;;;;5119247;28;20457;-67
2021/05/07 08:12:45;;;;;;;6.00;3.20;;;7.00;99.90;;;;;;5119321;28;20456;-66
2021/05/07 08:15:12;;;;;;;6.90;3.30;;;6.90;99.90;;;;;;5119383;27;20461;-66
2021/05/07 08:17:38;;;;;;;4.77;3.50;;;6.80;99.90;;;;;;5119418;28;20448;-67
2021/05/07 08:20:06;;;;;;;5.47;3.87;;;6.80;99.90;;;;;;5119351;28;20459;-66
2021/05/07 08:22:32;;;;;;;4.63;2.60;;;6.70;99.90;;;;;;5118711;28;20457;-66
2021/05/07 08:24:59;;;;;;;3.47;2.37;;;6.60;99.90;;;;;;5118795;27;20478;-67
2021/05/07 08:27:29;;;;;;;5.20;3.27;;;6.50;99.90;;;;;;5119022;28;20900;-66
2021/05/07 08:29:56;;;;;;;6.27;3.60;;;6.40;99.90;;;;;;5119789;28;20472;-66
2021/05/07 08:32:22;;;;;;;3.30;2.70;;;6.30;99.90;;;;;;5119616;28;20437;-66
2021/05/07 08:34:49;;;;;;;4.03;2.90;;;6.30;99.90;;;;;;5119650;27;20508;-67
2021/05/07 08:37:16;;;;;;;3.90;2.60;;;6.20;99.90;;;;;;5119043;28;20467;-69
2021/05/07 08:39:42;;;;;;;4.30;2.87;;;6.10;99.90;;;;;;5119193;28;20452;-66
2021/05/07 08:42:10;;;;;;;5.47;3.47;;;6.00;99.90;;;;;;5119063;28;20456;-66
2021/05/07 08:44:38;;;;;;;6.23;4.00;;;5.90;99.90;;;;;;5119902;28;20455;-66
2021/05/07 08:47:08;;;;;;;4.30;3.60;;;5.80;99.90;;;;;;5119386;28;20969;-66
2021/05/07 08:49:34;;;;;;;3.90;2.90;;;5.70;99.90;;;;;;5119139;28;20546;-66
2021/05/07 08:52:01;;;;;;;3.33;2.90;;;5.70;99.90;;;;;;5119268;28;20776;-67
2021/05/07 08:54:28;;;;;;;5.07;2.60;;;5.60;99.90;;;;;;5118952;28;20486;-66
2021/05/07 08:56:55;;;;;;;3.27;2.97;;;5.50;99.90;;;;;;5119504;28;20561;-66
2021/05/07 08:59:21;;;;;;;2.73;2.53;;;5.40;99.90;;;;;;5124866;28;20452;-67
2021/05/07 09:01:50;;;;;;;2.80;2.60;;;5.30;99.90;;;;;;5119358;28;20456;-66
2021/05/07 09:04:18;;;;;;;4.60;3.30;;;5.20;99.90;;;;;;5118216;28;20453;-66
2021/05/07 09:06:50;;;;;;;6.13;2.97;;;5.20;99.90;;;;;;5117809;28;20461;-66
2021/05/07 09:09:18;;;;;;;4.00;2.80;;;5.10;99.90;;;;;;5117760;28;20450;-66
2021/05/07 09:11:45;;;;;;;3.00;2.70;;;5.00;99.90;;;;;;5117918;28;20467;-67
2021/05/07 09:14:11;;;;;;;5.97;3.03;;;4.90;99.90;;;;;;5117634;28;20537;-66
2021/05/07 09:16:48;;;;;;;5.10;3.10;;;4.90;99.90;;;;;;5117012;28;20464;-66
2021/05/07 09:19:20;;;;;;;3.40;2.97;;;4.90;99.90;;;;;;5117635;28;20441;-66
2021/05/07 09:21:46;;;;;;;7.50;3.27;;;4.80;99.90;;;;;;5117620;28;20509;-67
2021/05/07 09:24:12;;;;;;;6.10;3.47;;;4.70;99.90;;;;;;5118238;28;20477;-66
2021/05/07 09:26:49;;;;;;;4.53;3.23;;;4.60;99.90;;;;;;5117855;28;20467;-66
2021/05/07 09:29:20;;;;;;;4.03;2.97;;;4.60;99.90;;;;;;5117473;28;20440;-66
2021/05/07 09:31:49;;;;;;;3.20;2.90;;;4.50;99.90;;;;;;5117419;28;20480;-65
2021/05/07 09:34:16;;;;;;;4.43;3.07;;;4.50;99.90;;;;;;5117290;28;20491;-66
2021/05/07 09:36:43;;;;;;;3.67;2.93;;;4.40;99.90;;;;;;5117071;27;20452;-66
2021/05/07 09:39:14;;;;;;;6.97;3.50;;;4.40;99.90;;;;;;5117192;27;20509;-66
2021/05/07 09:41:42;;;;;;;4.33;3.27;;;4.40;99.90;;;;;;5116826;28;20452;-66
2021/05/07 09:44:16;;;;;;;3.20;2.70;;;4.40;99.90;;;;;;5116845;27;20452;-66
2021/05/07 09:46:42;;;;;;;3.53;3.23;;;4.40;99.90;;;;;;5116640;28;20532;-67
2021/05/07 09:49:08;;;;;;;3.40;2.77;;;4.40;99.90;;;;;;5116177;28;20748;-66
2021/05/07 09:51:41;;;;;;;4.10;2.87;;;4.30;99.90;;;;;;5116439;28;20460;-66
2021/05/07 09:54:09;;;;;;;3.10;2.20;;;4.20;99.90;;;;;;5115900;28;20803;-67
2021/05/07 09:56:36;;;;;;;3.07;2.87;;;4.10;99.90;;;;;;5116052;28;20453;-67
2021/05/07 09:59:03;;;;;;;5.17;2.70;;;4.00;99.90;;;;;;5116333;28;20533;-67
2021/05/07 10:01:30;;;;;;;6.50;2.87;;;4.00;99.90;;;;;;5116302;28;20486;-67
2021/05/07 10:03:57;;;;;;;4.83;2.93;;;4.10;99.90;;;;;;5116293;27;20468;-66
2021/05/07 10:06:24;;;;;;;3.17;2.87;;;4.10;99.90;;;;;;5116417;28;20456;-66
2021/05/07 10:08:51;;;;;;;3.13;2.83;;;4.20;99.90;;;;;;5117036;28;20463;-66
2021/05/07 10:11:21;;;;;;;4.30;2.90;;;4.20;99.90;;;;;;5116385;27;20460;-67
2021/05/07 10:13:49;;;;;;;3.60;3.00;;;4.30;99.90;;;;;;5116509;28;20472;-67
2021/05/07 10:16:29;;;;;;;3.23;2.93;;;4.40;99.90;;;;;;5115707;28;20468;-67
2021/05/07 10:19:00;;;;;;;2.87;2.67;;;4.50;99.90;;;;;;5115942;28;20822;-67
2021/05/07 10:21:35;;;;;;;1.80;1.70;;;4.50;99.90;;;;;;5116084;28;20467;-67
2021/05/07 10:24:04;;;;;;;2.13;1.87;;;4.50;99.90;;;;;;5116348;28;20494;-67
2021/05/07 10:26:37;;;;;;;2.13;1.77;;;4.60;99.90;;;;;;5115735;27;20463;-67
2021/05/07 10:29:18;;;;;;;1.70;1.60;;;4.80;99.90;;;;;;5116004;28;20456;-67
2021/05/07 10:31:46;;;;;;;2.13;1.90;;;4.80;99.90;;;;;;5115864;28;20495;-68
2021/05/07 10:34:13;;;;;;;1.70;1.60;;;4.80;99.90;;;;;;5115950;28;20487;-67
2021/05/07 10:36:40;;;;;;;2.00;1.90;;;4.90;99.90;;;;;;5116307;28;20456;-68
2021/05/07 10:39:17;;;;;;;2.40;2.03;;;5.10;99.90;;;;;;5117008;28;20513;-67
2021/05/07 10:41:44;;;;;;;2.23;2.03;;;5.30;99.90;;;;;;5116880;28;20470;-68
2021/05/07 10:44:12;;;;;;;2.37;2.17;;;5.50;99.90;;;;;;5116785;28;20452;-67
2021/05/07 10:46:39;;;;;;;2.20;1.70;;;5.80;99.90;;;;;;5119373;28;20468;-67
2021/05/07 10:49:05;;;;;;;2.70;2.30;;;6.00;99.90;;;;;;5118558;28;20452;-68
2021/05/07 10:51:32;;;;;;;1.53;1.43;;;6.10;99.90;;;;;;5118477;28;20482;-68
2021/05/07 10:54:08;;;;;;;1.93;1.77;;;6.40;99.90;;;;;;5117185;28;20500;-67
2021/05/07 10:56:36;;;;;;;2.13;2.03;;;6.60;99.90;;;;;;5118654;28;20755;-67
2021/05/07 10:59:12;;;;;;;2.60;2.23;;;6.70;99.90;;;;;;5117505;28;20456;-67
2021/05/07 11:01:39;;;;;;;2.10;1.73;;;6.90;99.90;;;;;;5117818;28;20440;-67
2021/05/07 11:04:09;;;;;;;2.00;1.80;;;7.00;99.90;;;;;;5117619;28;20459;-67
2021/05/07 11:06:37;;;;;;;2.37;2.17;;;7.20;99.90;;;;;;5115782;28;20475;-66
2021/05/07 11:09:20;;;;;;;3.87;2.27;;;7.40;99.90;;;;;;5115816;28;20457;-66
2021/05/07 11:11:48;;;;;;;3.03;2.13;;;7.40;99.90;;;;;;5115671;28;20822;-67
2021/05/07 11:14:16;;;;;;;2.43;1.80;;;7.50;99.90;;;;;;5115906;28;20488;-67
2021/05/07 11:16:44;;;;;;;4.73;2.10;;;7.70;99.90;;;;;;5115704;28;20460;-67
2021/05/07 11:19:24;;;;;;;2.50;2.20;;;7.90;99.90;;;;;;5115513;28;20948;-67
2021/05/07 11:21:55;;;;;;;3.50;2.27;;;8.00;99.90;;;;;;5115643;28;20464;-68
2021/05/07 11:24:23;;;;;;;5.80;2.50;;;7.90;99.90;;;;;;5115614;28;20489;-67
2021/05/07 11:26:50;;;;;;;4.27;2.10;;;7.90;99.90;;;;;;5115520;28;20789;-67
2021/05/07 11:29:27;;;;;;;3.10;2.70;;;8.00;99.90;;;;;;5115880;28;20802;-67
2021/05/07 11:31:53;;;;;;;3.00;2.10;;;8.20;99.90;;;;;;5118879;28;20480;-67
2021/05/07 11:34:26;;;;;;;2.77;2.43;;;8.30;99.90;;;;;;5119365;28;20536;-66
2021/05/07 11:36:58;;;;;;;2.70;2.00;;;8.60;99.90;;;;;;5118898;28;20932;-67
2021/05/07 11:39:25;;;;;;;3.73;2.67;;;8.90;99.90;;;;;;5119003;28;20456;-68
2021/05/07 11:41:51;;;;;;;5.50;2.17;;;9.30;99.90;;;;;;5119401;28;20490;-65
2021/05/07 11:44:17;;;;;;;6.23;1.90;;;9.50;99.90;;;;;;5119365;28;20456;-66
2021/05/07 11:47:05;;;;;;;2.90;1.73;;;9.50;99.90;;;;;;5119213;28;20478;-66
2021/05/07 11:49:32;;;;;;;2.73;2.27;;;9.80;99.90;;;;;;5119062;28;20440;-66
2021/05/07 11:51:58;;;;;;;2.50;1.53;;;10.10;99.90;;;;;;5119318;28;20460;-67
2021/05/07 11:54:24;;;;;;;1.90;1.40;;;10.50;99.90;;;;;;5118802;28;20476;-67
2021/05/07 11:56:55;;;;;;;3.87;2.00;;;10.70;99.90;;;;;;5118990;28;20460;-67
2021/05/07 11:59:21;;;;;;;3.53;1.50;;;11.10;99.90;;;;;;5118227;28;20460;-67
2021/05/07 12:01:49;;;;;;;3.20;1.57;;;11.70;99.90;;;;;;5118382;28;20792;-66
2021/05/07 12:04:16;;;;;;;2.43;1.77;;;12.30;99.90;;;;;;5118844;28;20448;-66
2021/05/07 12:06:43;;;;;;;3.93;1.90;;;12.50;99.90;;;;;;5118738;28;20467;-65
2021/05/07 12:09:11;;;;;;;3.30;1.60;;;12.70;99.90;;;;;;5118745;28;20448;-65
2021/05/07 12:11:38;;;;;;;3.27;2.00;;;13.10;99.90;;;;;;5118200;28;20929;-67
2021/05/07 12:14:12;;;;;;;4.27;1.87;;;13.10;99.90;;;;;;5118421;28;20480;-66
2021/05/07 12:16:39;;;;;;;1.60;1.47;;;12.90;99.90;;;;;;5118422;28;20456;-67
2021/05/07 12:19:05;;;;;;;3.70;1.90;;;12.30;99.90;;;;;;5118972;28;20448;-67
2021/05/07 12:21:43;;;;;;;3.70;2.33;;;11.60;99.90;;;;;;5121311;28;20467;-67
2021/05/07 12:24:12;;;;;;;1.70;1.40;;;10.90;99.90;;;;;;5120782;28;20486;-67
2021/05/07 12:26:49;;;;;;;1.87;1.73;;;9.90;99.90;;;;;;5118561;28;20541;-67
2021/05/07 12:29:15;;;;;;;3.70;1.83;;;8.90;99.90;;;;;;5118163;28;20469;-67
2021/05/07 12:31:42;;;;;;;2.60;1.80;;;8.20;99.90;;;;;;5117532;28;20792;-68
2021/05/07 12:34:16;;;;;;;2.20;2.00;;;7.90;99.90;;;;;;5117734;28;20480;-67
2021/05/07 12:36:44;;;;;;;2.07;1.87;;;7.80;99.90;;;;;;5117819;28;20456;-67
2021/05/07 12:39:13;;;;;;;3.73;2.13;;;7.90;99.90;;;;;;5117929;28;20467;-67
2021/05/07 12:41:40;;;;;;;2.87;1.97;;;8.30;99.90;;;;;;5117618;27;20483;-66
2021/05/07 12:44:13;;;;;;;1.40;1.30;;;8.60;99.90;;;;;;5117806;27;20547;-68
2021/05/07 12:46:39;;;;;;;1.60;1.50;;;8.80;99.90;;;;;;5117812;28;20873;-67
2021/05/07 12:49:05;;;;;;;2.20;1.30;;;9.20;99.90;;;;;;5118121;28;20742;-66
2021/05/07 12:51:31;;;;;;;1.43;1.30;;;9.90;99.90;;;;;;5118273;28;20462;-67
2021/05/07 12:53:58;;;;;;;1.70;1.10;;;10.80;99.90;;;;;;5117931;28;20808;-67
2021/05/07 12:56:28;;;;;;;1.13;1.03;;;11.40;99.90;;;;;;5117847;28;20781;-68